Tupelo, OK (74572)

11:42 PM CDT on September 02, 2014 (GMT -0500)
APRSWXNET Coalgate OK US | Change Station
CLOSE
Current Station
Personal Weather Station
Location: Coalgate, OK
Elevation: 623 ft
Nearby Weather Stations

Elev 623 ft 34.53 °N, 96.21 °W | Updated 38 minutes ago

Clear
Clear
79 °F
Feels Like 81 °F
N
2
Wind Variable Wind from North
Gusts 6.0 mph

Today
High -- | Low -- °F
--% Chance of Precip.
Yesterday
High -- | Low -- °F
Precip. -- in
6:59 AM 7:50 PM
First Quarter, 58% visible
Pressure 29.96 in
Visibility 10.0 miles
Clouds Clear
Heat Index 81 °F
Dew Point 69 °F
Humidity 71%
Rainfall -999.00 in
Snow Depth Not available.
UV 0 out of 12
Pollen 10.50 out of 12
Air Quality Not available.
Flu Activity Not available.
METAR KADH 030435Z AUTO 13009KT 10SM CLR 24/20 A2996 RMK AO2

More Conditions Fewer Conditions

Pressure 29.96 in
Visibility 10.0 miles
Clouds Clear
Heat Index 81 °F
Dew Point 69 °F
Humidity 71%
Rainfall -999.00 in
Snow Depth Not available.
UV 0 out of 12
Pollen 10.50 out of 12
Air Quality Not available.
Flu Activity Not available.
METAR KADH 030435Z AUTO 13009KT 10SM CLR 24/20 A2996 RMK AO2

More Conditions Fewer Conditions

10-Day Weather Forecast

Almanac

Astronomy

Sep. 02, 2014 Rise Set
Actual Time 6:59 AM CDT 7:50 PM CDT
Civil Twilight 6:33 AM CDT 8:16 PM CDT
Nautical Twilight 6:03 AM CDT 8:46 PM CDT
Astronomical Twilight 5:32 AM CDT 9:17 PM CDT
Moon 2:27 PM CDT (9/2) 12:10 AM CDT (9/2)
Length of Visible Light 13h 42m
Length of Day
12h 51m
Tomorrow will be 2m 5s shorter.
First Quarter, 58% of the Moon is Illuminated
Sep 3
First Quarter
Sep 8
Full
Sep 15
Last Quarter
Sep 24
New
Oct 1
First Quarter

Yesterday's Extremes

State Highs State Lows

Community

WunderPhotos

Upload Photos

1,749,875 photos uploaded!

Nearby

Snow Depth

Station Depth Elevation
No new snow has been reported.

Earthquake Activity

City Distance Mag. Time & Date
Helena, Oklahoma 169 miles 3.2 3:05 AM CDT
2014-09-02
Perry, Oklahoma 122 miles 3.1 6:46 AM CDT
2014-09-01
Jones, Oklahoma 84 miles 3.1 1:49 PM CDT
2014-08-31
Enid, Oklahoma 163 miles 3.4 11:57 AM CDT
2014-08-31
Minimum magnitude displayed is 2.5.

Coastal Water Temperatures

Place Temperature
No Stations Reporting

Nearby Weather Stations